sensor_id;sensor_type;location;lat;lon;timestamp;P1;durP1;ratioP1;P2;durP2;ratioP2
29238;SDS011;16267;48.194;11.546;2024-02-26T00:00:43;4.10;;;1.95;;
29238;SDS011;16267;48.194;11.546;2024-02-26T00:03:11;2.83;;;1.55;;
29238;SDS011;16267;48.194;11.546;2024-02-26T00:05:37;2.97;;;1.70;;
29238;SDS011;16267;48.194;11.546;2024-02-26T00:08:04;4.28;;;2.00;;
29238;SDS011;16267;48.194;11.546;2024-02-26T00:10:30;4.18;;;2.17;;
29238;SDS011;16267;48.194;11.546;2024-02-26T00:12:55;3.95;;;2.10;;
29238;SDS011;16267;48.194;11.546;2024-02-26T00:15:21;3.55;;;1.75;;
29238;SDS011;16267;48.194;11.546;2024-02-26T00:17:47;2.03;;;1.30;;
29238;SDS011;16267;48.194;11.546;2024-02-26T00:20:12;3.97;;;1.75;;
29238;SDS011;16267;48.194;11.546;2024-02-26T00:22:38;2.90;;;1.75;;
29238;SDS011;16267;48.194;11.546;2024-02-26T00:25:04;3.10;;;2.05;;
29238;SDS011;16267;48.194;11.546;2024-02-26T00:27:34;3.75;;;1.83;;
29238;SDS011;16267;48.194;11.546;2024-02-26T00:29:59;4.95;;;1.80;;
29238;SDS011;16267;48.194;11.546;2024-02-26T00:32:25;4.22;;;1.88;;
29238;SDS011;16267;48.194;11.546;2024-02-26T00:34:51;3.65;;;1.70;;
29238;SDS011;16267;48.194;11.546;2024-02-26T00:37:17;2.90;;;1.90;;
29238;SDS011;16267;48.194;11.546;2024-02-26T00:39:43;5.35;;;1.67;;
29238;SDS011;16267;48.194;11.546;2024-02-26T00:42:11;3.40;;;1.80;;
29238;SDS011;16267;48.194;11.546;2024-02-26T00:44:37;3.53;;;1.98;;
29238;SDS011;16267;48.194;11.546;2024-02-26T00:47:04;4.03;;;1.90;;
29238;SDS011;16267;48.194;11.546;2024-02-26T00:49:29;5.50;;;1.60;;
29238;SDS011;16267;48.194;11.546;2024-02-26T00:51:55;2.42;;;1.45;;
29238;SDS011;16267;48.194;11.546;2024-02-26T00:54:21;3.13;;;1.73;;
29238;SDS011;16267;48.194;11.546;2024-02-26T00:56:46;3.95;;;1.50;;
29238;SDS011;16267;48.194;11.546;2024-02-26T00:59:13;3.35;;;1.70;;
29238;SDS011;16267;48.194;11.546;2024-02-26T01:01:39;2.80;;;1.60;;
29238;SDS011;16267;48.194;11.546;2024-02-26T01:04:05;2.60;;;1.60;;
29238;SDS011;16267;48.194;11.546;2024-02-26T01:06:31;3.08;;;1.92;;
29238;SDS011;16267;48.194;11.546;2024-02-26T01:08:56;3.60;;;1.73;;
29238;SDS011;16267;48.194;11.546;2024-02-26T01:11:22;4.57;;;1.80;;
29238;SDS011;16267;48.194;11.546;2024-02-26T01:13:48;4.18;;;2.00;;
29238;SDS011;16267;48.194;11.546;2024-02-26T01:16:18;2.25;;;1.50;;
29238;SDS011;16267;48.194;11.546;2024-02-26T01:18:44;2.90;;;1.73;;
29238;SDS011;16267;48.194;11.546;2024-02-26T01:21:09;4.57;;;2.10;;
29238;SDS011;16267;48.194;11.546;2024-02-26T01:23:35;3.50;;;2.00;;
29238;SDS011;16267;48.194;11.546;2024-02-26T01:26:01;3.97;;;2.13;;
29238;SDS011;16267;48.194;11.546;2024-02-26T01:28:27;2.58;;;1.65;;
29238;SDS011;16267;48.194;11.546;2024-02-26T01:30:53;3.28;;;1.50;;
29238;SDS011;16267;48.194;11.546;2024-02-26T01:33:19;4.18;;;1.85;;
29238;SDS011;16267;48.194;11.546;2024-02-26T01:35:44;2.55;;;1.67;;
29238;SDS011;16267;48.194;11.546;2024-02-26T01:38:11;3.50;;;1.80;;
29238;SDS011;16267;48.194;11.546;2024-02-26T01:40:37;3.67;;;1.98;;
29238;SDS011;16267;48.194;11.546;2024-02-26T01:43:03;5.18;;;2.22;;
29238;SDS011;16267;48.194;11.546;2024-02-26T01:45:29;4.32;;;1.92;;
29238;SDS011;16267;48.194;11.546;2024-02-26T01:47:54;2.78;;;1.35;;
29238;SDS011;16267;48.194;11.546;2024-02-26T01:50:21;4.40;;;1.60;;
29238;SDS011;16267;48.194;11.546;2024-02-26T01:52:49;2.60;;;1.60;;
29238;SDS011;16267;48.194;11.546;2024-02-26T01:55:17;3.45;;;1.70;;
29238;SDS011;16267;48.194;11.546;2024-02-26T01:57:45;3.80;;;1.70;;
29238;SDS011;16267;48.194;11.546;2024-02-26T02:00:13;6.28;;;1.77;;
29238;SDS011;16267;48.194;11.546;2024-02-26T02:02:41;3.80;;;1.67;;
29238;SDS011;16267;48.194;11.546;2024-02-26T02:05:09;7.10;;;1.70;;
29238;SDS011;16267;48.194;11.546;2024-02-26T02:07:40;3.13;;;1.77;;
29238;SDS011;16267;48.194;11.546;2024-02-26T02:10:06;3.00;;;1.50;;
29238;SDS011;16267;48.194;11.546;2024-02-26T02:12:32;3.55;;;1.80;;
29238;SDS011;16267;48.194;11.546;2024-02-26T02:14:59;2.50;;;1.55;;
29238;SDS011;16267;48.194;11.546;2024-02-26T02:17:26;3.50;;;1.40;;
29238;SDS011;16267;48.194;11.546;2024-02-26T02:19:53;2.92;;;1.58;;
29238;SDS011;16267;48.194;11.546;2024-02-26T02:22:18;1.92;;;1.27;;
29238;SDS011;16267;48.194;11.546;2024-02-26T02:24:45;2.72;;;1.45;;
29238;SDS011;16267;48.194;11.546;2024-02-26T02:27:12;1.95;;;1.27;;
29238;SDS011;16267;48.194;11.546;2024-02-26T02:29:37;2.38;;;1.67;;
29238;SDS011;16267;48.194;11.546;2024-02-26T02:32:03;4.45;;;1.70;;
29238;SDS011;16267;48.194;11.546;2024-02-26T02:34:32;2.50;;;1.45;;
29238;SDS011;16267;48.194;11.546;2024-02-26T02:36:59;2.55;;;1.33;;
29238;SDS011;16267;48.194;11.546;2024-02-26T02:39:24;3.75;;;1.92;;
29238;SDS011;16267;48.194;11.546;2024-02-26T02:41:50;2.40;;;1.20;;
29238;SDS011;16267;48.194;11.546;2024-02-26T02:44:16;3.17;;;1.27;;
29238;SDS011;16267;48.194;11.546;2024-02-26T02:46:41;3.58;;;1.58;;
29238;SDS011;16267;48.194;11.546;2024-02-26T02:49:11;3.55;;;1.20;;
29238;SDS011;16267;48.194;11.546;2024-02-26T02:51:37;2.53;;;1.52;;
29238;SDS011;16267;48.194;11.546;2024-02-26T02:54:03;3.58;;;1.50;;
29238;SDS011;16267;48.194;11.546;2024-02-26T02:56:28;5.30;;;1.55;;
29238;SDS011;16267;48.194;11.546;2024-02-26T02:58:54;2.47;;;1.67;;
29238;SDS011;16267;48.194;11.546;2024-02-26T03:01:20;5.00;;;1.42;;
29238;SDS011;16267;48.194;11.546;2024-02-26T03:03:46;3.60;;;1.48;;
29238;SDS011;16267;48.194;11.546;2024-02-26T03:06:12;6.50;;;1.60;;
29238;SDS011;16267;48.194;11.546;2024-02-26T03:08:38;1.95;;;1.27;;
29238;SDS011;16267;48.194;11.546;2024-02-26T03:11:06;2.97;;;1.42;;
29238;SDS011;16267;48.194;11.546;2024-02-26T03:13:32;2.35;;;1.35;;
29238;SDS011;16267;48.194;11.546;2024-02-26T03:15:58;4.07;;;1.80;;
29238;SDS011;16267;48.194;11.546;2024-02-26T03:18:29;4.03;;;1.52;;
29238;SDS011;16267;48.194;11.546;2024-02-26T03:20:55;3.92;;;1.63;;
29238;SDS011;16267;48.194;11.546;2024-02-26T03:23:21;3.42;;;1.77;;
29238;SDS011;16267;48.194;11.546;2024-02-26T03:25:47;3.88;;;1.95;;
29238;SDS011;16267;48.194;11.546;2024-02-26T03:28:13;2.92;;;1.60;;
29238;SDS011;16267;48.194;11.546;2024-02-26T03:30:39;3.15;;;1.60;;
29238;SDS011;16267;48.194;11.546;2024-02-26T03:33:04;4.32;;;2.03;;
29238;SDS011;16267;48.194;11.546;2024-02-26T03:35:30;3.63;;;1.98;;
29238;SDS011;16267;48.194;11.546;2024-02-26T03:37:56;3.22;;;2.00;;
29238;SDS011;16267;48.194;11.546;2024-02-26T03:40:21;3.00;;;1.45;;
29238;SDS011;16267;48.194;11.546;2024-02-26T03:42:47;5.75;;;2.50;;
29238;SDS011;16267;48.194;11.546;2024-02-26T03:45:13;3.75;;;1.58;;
29238;SDS011;16267;48.194;11.546;2024-02-26T03:47:38;6.15;;;1.58;;
29238;SDS011;16267;48.194;11.546;2024-02-26T03:50:05;3.50;;;1.55;;
29238;SDS011;16267;48.194;11.546;2024-02-26T03:52:32;1.90;;;1.23;;
29238;SDS011;16267;48.194;11.546;2024-02-26T03:54:59;2.08;;;1.35;;
29238;SDS011;16267;48.194;11.546;2024-02-26T03:57:24;2.97;;;1.45;;
29238;SDS011;16267;48.194;11.546;2024-02-26T03:59:50;5.05;;;1.60;;
29238;SDS011;16267;48.194;11.546;2024-02-26T04:02:16;2.38;;;1.80;;
29238;SDS011;16267;48.194;11.546;2024-02-26T04:04:44;3.30;;;1.70;;
29238;SDS011;16267;48.194;11.546;2024-02-26T04:07:11;2.95;;;1.40;;
29238;SDS011;16267;48.194;11.546;2024-02-26T04:09:38;3.30;;;1.30;;
29238;SDS011;16267;48.194;11.546;2024-02-26T04:12:04;2.88;;;1.33;;
29238;SDS011;16267;48.194;11.546;2024-02-26T04:14:30;2.25;;;1.48;;
29238;SDS011;16267;48.194;11.546;2024-02-26T04:16:56;3.97;;;1.40;;
29238;SDS011;16267;48.194;11.546;2024-02-26T04:19:22;2.88;;;1.58;;
29238;SDS011;16267;48.194;11.546;2024-02-26T04:21:47;3.95;;;1.35;;
29238;SDS011;16267;48.194;11.546;2024-02-26T04:24:13;2.63;;;1.45;;
29238;SDS011;16267;48.194;11.546;2024-02-26T04:26:39;2.38;;;1.38;;
29238;SDS011;16267;48.194;11.546;2024-02-26T04:29:04;2.90;;;1.30;;
29238;SDS011;16267;48.194;11.546;2024-02-26T04:31:30;3.90;;;1.77;;
29238;SDS011;16267;48.194;11.546;2024-02-26T04:33:58;2.40;;;1.25;;
29238;SDS011;16267;48.194;11.546;2024-02-26T04:36:24;2.78;;;1.30;;
29238;SDS011;16267;48.194;11.546;2024-02-26T04:38:51;2.17;;;1.42;;
29238;SDS011;16267;48.194;11.546;2024-02-26T04:41:19;3.55;;;1.55;;
29238;SDS011;16267;48.194;11.546;2024-02-26T04:43:45;2.28;;;1.25;;
29238;SDS011;16267;48.194;11.546;2024-02-26T04:46:11;3.47;;;1.40;;
29238;SDS011;16267;48.194;11.546;2024-02-26T04:48:36;2.30;;;1.30;;
29238;SDS011;16267;48.194;11.546;2024-02-26T04:51:03;4.35;;;1.35;;
29238;SDS011;16267;48.194;11.546;2024-02-26T04:53:29;3.80;;;1.42;;
29238;SDS011;16267;48.194;11.546;2024-02-26T04:55:55;3.78;;;1.27;;
29238;SDS011;16267;48.194;11.546;2024-02-26T04:58:21;2.03;;;1.10;;
29238;SDS011;16267;48.194;11.546;2024-02-26T05:00:47;2.95;;;1.38;;
29238;SDS011;16267;48.194;11.546;2024-02-26T05:03:13;3.75;;;1.17;;
29238;SDS011;16267;48.194;11.546;2024-02-26T05:05:40;2.70;;;1.30;;
29238;SDS011;16267;48.194;11.546;2024-02-26T05:08:09;2.20;;;1.08;;
29238;SDS011;16267;48.194;11.546;2024-02-26T05:10:35;2.05;;;1.00;;
29238;SDS011;16267;48.194;11.546;2024-02-26T05:13:09;2.03;;;1.17;;
29238;SDS011;16267;48.194;11.546;2024-02-26T05:15:35;2.33;;;1.08;;
29238;SDS011;16267;48.194;11.546;2024-02-26T05:18:01;1.55;;;0.85;;
29238;SDS011;16267;48.194;11.546;2024-02-26T05:20:28;2.65;;;1.30;;
29238;SDS011;16267;48.194;11.546;2024-02-26T05:22:54;1.90;;;0.98;;
29238;SDS011;16267;48.194;11.546;2024-02-26T05:25:19;4.30;;;1.52;;
29238;SDS011;16267;48.194;11.546;2024-02-26T05:27:45;2.78;;;1.23;;
29238;SDS011;16267;48.194;11.546;2024-02-26T05:30:11;1.80;;;1.20;;
29238;SDS011;16267;48.194;11.546;2024-02-26T05:32:37;2.30;;;1.27;;
29238;SDS011;16267;48.194;11.546;2024-02-26T05:35:03;2.67;;;1.38;;
29238;SDS011;16267;48.194;11.546;2024-02-26T05:37:30;1.95;;;1.20;;
29238;SDS011;16267;48.194;11.546;2024-02-26T05:39:55;2.90;;;1.35;;
29238;SDS011;16267;48.194;11.546;2024-02-26T05:42:21;3.65;;;1.48;;
29238;SDS011;16267;48.194;11.546;2024-02-26T05:44:47;3.42;;;1.50;;
29238;SDS011;16267;48.194;11.546;2024-02-26T05:47:13;3.47;;;1.35;;
29238;SDS011;16267;48.194;11.546;2024-02-26T05:49:39;2.78;;;1.60;;
29238;SDS011;16267;48.194;11.546;2024-02-26T05:52:05;3.67;;;1.30;;
29238;SDS011;16267;48.194;11.546;2024-02-26T05:54:31;7.47;;;1.83;;
29238;SDS011;16267;48.194;11.546;2024-02-26T05:56:57;2.15;;;1.33;;
29238;SDS011;16267;48.194;11.546;2024-02-26T05:59:23;2.22;;;1.35;;
29238;SDS011;16267;48.194;11.546;2024-02-26T06:01:49;3.20;;;1.15;;
29238;SDS011;16267;48.194;11.546;2024-02-26T06:04:14;2.67;;;1.30;;
29238;SDS011;16267;48.194;11.546;2024-02-26T06:06:44;2.85;;;1.38;;
29238;SDS011;16267;48.194;11.546;2024-02-26T06:09:10;1.63;;;0.93;;
29238;SDS011;16267;48.194;11.546;2024-02-26T06:11:36;4.47;;;1.48;;
29238;SDS011;16267;48.194;11.546;2024-02-26T06:14:03;5.63;;;1.90;;
29238;SDS011;16267;48.194;11.546;2024-02-26T06:16:28;7.38;;;2.25;;
29238;SDS011;16267;48.194;11.546;2024-02-26T06:18:54;5.32;;;2.00;;
29238;SDS011;16267;48.194;11.546;2024-02-26T06:21:21;2.92;;;1.60;;
29238;SDS011;16267;48.194;11.546;2024-02-26T06:23:47;8.95;;;2.05;;
29238;SDS011;16267;48.194;11.546;2024-02-26T06:26:14;4.85;;;1.92;;
29238;SDS011;16267;48.194;11.546;2024-02-26T06:28:39;3.65;;;1.85;;
29238;SDS011;16267;48.194;11.546;2024-02-26T06:31:05;8.85;;;2.20;;
29238;SDS011;16267;48.194;11.546;2024-02-26T06:33:31;3.22;;;1.85;;
29238;SDS011;16267;48.194;11.546;2024-02-26T06:35:57;6.70;;;1.80;;
29238;SDS011;16267;48.194;11.546;2024-02-26T06:38:25;11.30;;;2.15;;
29238;SDS011;16267;48.194;11.546;2024-02-26T06:40:50;5.47;;;2.50;;
29238;SDS011;16267;48.194;11.546;2024-02-26T06:43:16;4.50;;;1.80;;
29238;SDS011;16267;48.194;11.546;2024-02-26T06:45:42;4.20;;;1.67;;
29238;SDS011;16267;48.194;11.546;2024-02-26T06:48:08;6.40;;;1.88;;
29238;SDS011;16267;48.194;11.546;2024-02-26T06:50:33;3.53;;;1.60;;
29238;SDS011;16267;48.194;11.546;2024-02-26T06:52:59;3.30;;;2.05;;
29238;SDS011;16267;48.194;11.546;2024-02-26T06:55:25;10.93;;;2.33;;
29238;SDS011;16267;48.194;11.546;2024-02-26T06:57:50;8.52;;;2.13;;
29238;SDS011;16267;48.194;11.546;2024-02-26T07:00:16;6.53;;;2.00;;
29238;SDS011;16267;48.194;11.546;2024-02-26T07:02:43;8.80;;;1.88;;
29238;SDS011;16267;48.194;11.546;2024-02-26T07:05:09;11.60;;;2.20;;
29238;SDS011;16267;48.194;11.546;2024-02-26T07:07:35;6.95;;;2.28;;
29238;SDS011;16267;48.194;11.546;2024-02-26T07:10:01;5.65;;;1.65;;
29238;SDS011;16267;48.194;11.546;2024-02-26T07:12:29;3.80;;;2.35;;
29238;SDS011;16267;48.194;11.546;2024-02-26T07:14:55;9.80;;;2.22;;
29238;SDS011;16267;48.194;11.546;2024-02-26T07:17:21;6.93;;;1.83;;
29238;SDS011;16267;48.194;11.546;2024-02-26T07:19:47;4.47;;;2.40;;
29238;SDS011;16267;48.194;11.546;2024-02-26T07:22:12;5.88;;;2.47;;
29238;SDS011;16267;48.194;11.546;2024-02-26T07:24:38;8.63;;;3.10;;
29238;SDS011;16267;48.194;11.546;2024-02-26T07:27:04;6.22;;;2.28;;
29238;SDS011;16267;48.194;11.546;2024-02-26T07:29:30;4.30;;;2.20;;
29238;SDS011;16267;48.194;11.546;2024-02-26T07:31:56;4.45;;;1.92;;
29238;SDS011;16267;48.194;11.546;2024-02-26T07:34:23;9.30;;;2.00;;
29238;SDS011;16267;48.194;11.546;2024-02-26T07:36:52;9.55;;;2.47;;
29238;SDS011;16267;48.194;11.546;2024-02-26T07:39:19;4.90;;;2.53;;
29238;SDS011;16267;48.194;11.546;2024-02-26T07:41:44;5.10;;;2.30;;
29238;SDS011;16267;48.194;11.546;2024-02-26T07:44:13;6.65;;;2.55;;
29238;SDS011;16267;48.194;11.546;2024-02-26T07:46:39;5.30;;;2.08;;
29238;SDS011;16267;48.194;11.546;2024-02-26T07:49:04;4.03;;;2.33;;
29238;SDS011;16267;48.194;11.546;2024-02-26T07:51:30;17.55;;;3.55;;
29238;SDS011;16267;48.194;11.546;2024-02-26T07:53:56;6.15;;;2.25;;
29238;SDS011;16267;48.194;11.546;2024-02-26T07:56:22;5.70;;;2.15;;
29238;SDS011;16267;48.194;11.546;2024-02-26T07:58:47;5.70;;;2.72;;
29238;SDS011;16267;48.194;11.546;2024-02-26T08:01:13;6.20;;;2.97;;
29238;SDS011;16267;48.194;11.546;2024-02-26T08:03:39;7.38;;;2.53;;
29238;SDS011;16267;48.194;11.546;2024-02-26T08:06:05;7.18;;;2.58;;
29238;SDS011;16267;48.194;11.546;2024-02-26T08:08:33;5.47;;;2.58;;
29238;SDS011;16267;48.194;11.546;2024-02-26T08:10:59;4.63;;;2.25;;
29238;SDS011;16267;48.194;11.546;2024-02-26T08:13:25;6.05;;;2.15;;
29238;SDS011;16267;48.194;11.546;2024-02-26T08:15:51;3.83;;;2.47;;
29238;SDS011;16267;48.194;11.546;2024-02-26T08:18:17;4.65;;;2.50;;
29238;SDS011;16267;48.194;11.546;2024-02-26T08:20:44;4.38;;;2.20;;
29238;SDS011;16267;48.194;11.546;2024-02-26T08:23:10;4.63;;;2.35;;
29238;SDS011;16267;48.194;11.546;2024-02-26T08:25:36;7.78;;;2.10;;
29238;SDS011;16267;48.194;11.546;2024-02-26T08:28:01;7.72;;;2.90;;
29238;SDS011;16267;48.194;11.546;2024-02-26T08:30:27;8.23;;;3.08;;
29238;SDS011;16267;48.194;11.546;2024-02-26T08:32:53;12.88;;;3.38;;
29238;SDS011;16267;48.194;11.546;2024-02-26T08:35:19;5.50;;;2.83;;
29238;SDS011;16267;48.194;11.546;2024-02-26T08:37:45;7.00;;;3.08;;
29238;SDS011;16267;48.194;11.546;2024-02-26T08:40:12;8.35;;;2.65;;
29238;SDS011;16267;48.194;11.546;2024-02-26T08:42:41;5.38;;;2.03;;
29238;SDS011;16267;48.194;11.546;2024-02-26T08:45:08;6.72;;;2.58;;
29238;SDS011;16267;48.194;11.546;2024-02-26T08:47:34;7.82;;;2.38;;
29238;SDS011;16267;48.194;11.546;2024-02-26T08:50:00;3.63;;;2.08;;
29238;SDS011;16267;48.194;11.546;2024-02-26T08:52:26;7.40;;;3.00;;
29238;SDS011;16267;48.194;11.546;2024-02-26T08:54:51;8.57;;;2.30;;
29238;SDS011;16267;48.194;11.546;2024-02-26T08:57:17;8.50;;;3.03;;
29238;SDS011;16267;48.194;11.546;2024-02-26T08:59:43;5.68;;;3.30;;
29238;SDS011;16267;48.194;11.546;2024-02-26T09:02:08;7.30;;;3.28;;
29238;SDS011;16267;48.194;11.546;2024-02-26T09:04:34;6.57;;;2.58;;
29238;SDS011;16267;48.194;11.546;2024-02-26T09:07:00;5.28;;;2.60;;
29238;SDS011;16267;48.194;11.546;2024-02-26T09:09:27;8.18;;;2.88;;
29238;SDS011;16267;48.194;11.546;2024-02-26T09:11:53;5.45;;;2.78;;
29238;SDS011;16267;48.194;11.546;2024-02-26T09:14:20;4.03;;;1.88;;
29238;SDS011;16267;48.194;11.546;2024-02-26T09:16:46;4.20;;;1.88;;
29238;SDS011;16267;48.194;11.546;2024-02-26T09:19:16;10.90;;;2.40;;
29238;SDS011;16267;48.194;11.546;2024-02-26T09:21:45;5.90;;;2.47;;
29238;SDS011;16267;48.194;11.546;2024-02-26T09:24:11;4.15;;;2.22;;
29238;SDS011;16267;48.194;11.546;2024-02-26T09:26:37;3.85;;;1.80;;
29238;SDS011;16267;48.194;11.546;2024-02-26T09:29:03;7.35;;;2.42;;
29238;SDS011;16267;48.194;11.546;2024-02-26T09:31:29;3.05;;;1.88;;
29238;SDS011;16267;48.194;11.546;2024-02-26T09:33:55;4.70;;;1.77;;
29238;SDS011;16267;48.194;11.546;2024-02-26T09:36:21;3.83;;;1.88;;
29238;SDS011;16267;48.194;11.546;2024-02-26T09:38:47;5.13;;;1.60;;
29238;SDS011;16267;48.194;11.546;2024-02-26T09:41:16;4.07;;;1.70;;
29238;SDS011;16267;48.194;11.546;2024-02-26T09:43:43;5.13;;;2.10;;
29238;SDS011;16267;48.194;11.546;2024-02-26T09:46:11;8.05;;;1.90;;
29238;SDS011;16267;48.194;11.546;2024-02-26T09:48:37;2.88;;;1.52;;
29238;SDS011;16267;48.194;11.546;2024-02-26T09:51:04;2.75;;;1.40;;
29238;SDS011;16267;48.194;11.546;2024-02-26T09:53:30;3.17;;;1.63;;
29238;SDS011;16267;48.194;11.546;2024-02-26T09:55:58;3.58;;;1.38;;
29238;SDS011;16267;48.194;11.546;2024-02-26T09:58:24;5.68;;;1.10;;
29238;SDS011;16267;48.194;11.546;2024-02-26T10:00:54;11.70;;;2.03;;
29238;SDS011;16267;48.194;11.546;2024-02-26T10:03:31;4.50;;;1.40;;
29238;SDS011;16267;48.194;11.546;2024-02-26T10:06:09;5.35;;;1.45;;
29238;SDS011;16267;48.194;11.546;2024-02-26T10:08:36;7.22;;;1.17;;
29238;SDS011;16267;48.194;11.546;2024-02-26T10:11:04;3.10;;;1.25;;
29238;SDS011;16267;48.194;11.546;2024-02-26T10:13:36;3.47;;;1.00;;
29238;SDS011;16267;48.194;11.546;2024-02-26T10:16:03;1.88;;;1.20;;
29238;SDS011;16267;48.194;11.546;2024-02-26T10:18:50;2.35;;;1.10;;
29238;SDS011;16267;48.194;11.546;2024-02-26T10:21:19;4.40;;;1.35;;
29238;SDS011;16267;48.194;11.546;2024-02-26T10:23:46;2.60;;;1.10;;
29238;SDS011;16267;48.194;11.546;2024-02-26T10:26:13;5.03;;;1.50;;
29238;SDS011;16267;48.194;11.546;2024-02-26T10:28:44;2.47;;;1.50;;
29238;SDS011;16267;48.194;11.546;2024-02-26T10:31:11;1.95;;;0.90;;
29238;SDS011;16267;48.194;11.546;2024-02-26T10:33:38;1.75;;;0.88;;
29238;SDS011;16267;48.194;11.546;2024-02-26T10:36:05;5.35;;;1.15;;
29238;SDS011;16267;48.194;11.546;2024-02-26T10:38:35;2.97;;;1.35;;
29238;SDS011;16267;48.194;11.546;2024-02-26T10:41:02;4.97;;;1.40;;
29238;SDS011;16267;48.194;11.546;2024-02-26T10:43:31;1.40;;;0.95;;
29238;SDS011;16267;48.194;11.546;2024-02-26T10:45:57;3.38;;;1.33;;
29238;SDS011;16267;48.194;11.546;2024-02-26T10:48:23;1.90;;;1.10;;
29238;SDS011;16267;48.194;11.546;2024-02-26T10:50:49;2.47;;;1.55;;
29238;SDS011;16267;48.194;11.546;2024-02-26T10:53:22;4.68;;;1.48;;
29238;SDS011;16267;48.194;11.546;2024-02-26T10:55:54;3.42;;;1.30;;
29238;SDS011;16267;48.194;11.546;2024-02-26T10:58:28;3.15;;;1.35;;
29238;SDS011;16267;48.194;11.546;2024-02-26T11:00:56;3.75;;;1.23;;
29238;SDS011;16267;48.194;11.546;2024-02-26T11:03:23;2.58;;;1.50;;
29238;SDS011;16267;48.194;11.546;2024-02-26T11:05:50;5.95;;;1.38;;
29238;SDS011;16267;48.194;11.546;2024-02-26T11:08:19;7.35;;;1.75;;
29238;SDS011;16267;48.194;11.546;2024-02-26T11:10:50;2.35;;;1.17;;
29238;SDS011;16267;48.194;11.546;2024-02-26T11:13:19;1.13;;;0.73;;
29238;SDS011;16267;48.194;11.546;2024-02-26T11:15:47;2.53;;;0.90;;
29238;SDS011;16267;48.194;11.546;2024-02-26T11:18:15;4.43;;;1.20;;
29238;SDS011;16267;48.194;11.546;2024-02-26T11:20:44;1.85;;;0.68;;
29238;SDS011;16267;48.194;11.546;2024-02-26T11:23:11;0.73;;;0.63;;
29238;SDS011;16267;48.194;11.546;2024-02-26T11:25:37;2.65;;;1.00;;
29238;SDS011;16267;48.194;11.546;2024-02-26T11:28:05;1.13;;;0.70;;
29238;SDS011;16267;48.194;11.546;2024-02-26T11:30:38;1.30;;;0.90;;
29238;SDS011;16267;48.194;11.546;2024-02-26T11:33:08;1.10;;;0.70;;
29238;SDS011;16267;48.194;11.546;2024-02-26T11:35:36;2.85;;;0.95;;
29238;SDS011;16267;48.194;11.546;2024-02-26T11:38:02;3.53;;;0.63;;
29238;SDS011;16267;48.194;11.546;2024-02-26T11:40:30;2.17;;;0.88;;
29238;SDS011;16267;48.194;11.546;2024-02-26T11:42:57;1.50;;;0.63;;
29238;SDS011;16267;48.194;11.546;2024-02-26T11:48:26;1.05;;;0.70;;
29238;SDS011;16267;48.194;11.546;2024-02-26T11:50:54;2.30;;;0.73;;
29238;SDS011;16267;48.194;11.546;2024-02-26T11:53:31;2.05;;;0.70;;
29238;SDS011;16267;48.194;11.546;2024-02-26T11:58:45;2.35;;;0.82;;
29238;SDS011;16267;48.194;11.546;2024-02-26T12:04:24;1.98;;;0.70;;
29238;SDS011;16267;48.194;11.546;2024-02-26T12:06:55;5.45;;;0.63;;
29238;SDS011;16267;48.194;11.546;2024-02-26T12:09:38;4.93;;;0.63;;
29238;SDS011;16267;48.194;11.546;2024-02-26T12:12:07;5.82;;;0.77;;
29238;SDS011;16267;48.194;11.546;2024-02-26T12:14:39;1.45;;;0.60;;
29238;SDS011;16267;48.194;11.546;2024-02-26T12:17:23;1.70;;;0.63;;
29238;SDS011;16267;48.194;11.546;2024-02-26T12:19:50;0.70;;;0.65;;
29238;SDS011;16267;48.194;11.546;2024-02-26T12:22:18;0.63;;;0.52;;
29238;SDS011;16267;48.194;11.546;2024-02-26T12:24:45;0.95;;;0.70;;
29238;SDS011;16267;48.194;11.546;2024-02-26T12:27:11;1.02;;;0.68;;
29238;SDS011;16267;48.194;11.546;2024-02-26T12:29:37;6.07;;;1.77;;
29238;SDS011;16267;48.194;11.546;2024-02-26T12:32:04;0.93;;;0.60;;
29238;SDS011;16267;48.194;11.546;2024-02-26T12:34:30;1.92;;;1.00;;
29238;SDS011;16267;48.194;11.546;2024-02-26T12:36:57;1.88;;;1.13;;
29238;SDS011;16267;48.194;11.546;2024-02-26T12:39:23;1.73;;;0.95;;
29238;SDS011;16267;48.194;11.546;2024-02-26T12:41:49;2.78;;;1.23;;
29238;SDS011;16267;48.194;11.546;2024-02-26T12:44:18;1.73;;;0.88;;
29238;SDS011;16267;48.194;11.546;2024-02-26T12:46:50;2.28;;;1.00;;
29238;SDS011;16267;48.194;11.546;2024-02-26T12:49:24;2.47;;;1.10;;
29238;SDS011;16267;48.194;11.546;2024-02-26T12:51:50;2.03;;;1.13;;
29238;SDS011;16267;48.194;11.546;2024-02-26T12:54:16;1.42;;;0.93;;
29238;SDS011;16267;48.194;11.546;2024-02-26T12:56:42;1.75;;;0.95;;
29238;SDS011;16267;48.194;11.546;2024-02-26T12:59:08;2.63;;;0.95;;
29238;SDS011;16267;48.194;11.546;2024-02-26T13:01:34;2.20;;;1.02;;
29238;SDS011;16267;48.194;11.546;2024-02-26T13:04:01;1.70;;;1.02;;
29238;SDS011;16267;48.194;11.546;2024-02-26T13:06:31;1.00;;;0.73;;
29238;SDS011;16267;48.194;11.546;2024-02-26T13:08:58;1.83;;;0.98;;
29238;SDS011;16267;48.194;11.546;2024-02-26T13:11:24;1.88;;;1.10;;
29238;SDS011;16267;48.194;11.546;2024-02-26T13:13:51;3.30;;;1.00;;
29238;SDS011;16267;48.194;11.546;2024-02-26T13:16:16;1.92;;;0.93;;
29238;SDS011;16267;48.194;11.546;2024-02-26T13:18:42;3.95;;;1.83;;
29238;SDS011;16267;48.194;11.546;2024-02-26T13:21:15;9.63;;;1.75;;
29238;SDS011;16267;48.194;11.546;2024-02-26T13:23:43;1.40;;;0.93;;
29238;SDS011;16267;48.194;11.546;2024-02-26T13:26:15;4.53;;;1.00;;
29238;SDS011;16267;48.194;11.546;2024-02-26T13:28:41;1.95;;;0.90;;
29238;SDS011;16267;48.194;11.546;2024-02-26T13:31:07;5.22;;;0.93;;
29238;SDS011;16267;48.194;11.546;2024-02-26T13:33:33;1.05;;;0.77;;
29238;SDS011;16267;48.194;11.546;2024-02-26T13:35:59;0.98;;;0.57;;
29238;SDS011;16267;48.194;11.546;2024-02-26T13:38:27;7.85;;;0.70;;
29238;SDS011;16267;48.194;11.546;2024-02-26T13:40:56;0.65;;;0.45;;
29238;SDS011;16267;48.194;11.546;2024-02-26T13:43:22;1.77;;;0.82;;
29238;SDS011;16267;48.194;11.546;2024-02-26T13:45:48;2.35;;;0.85;;
29238;SDS011;16267;48.194;11.546;2024-02-26T13:48:13;1.20;;;0.88;;
29238;SDS011;16267;48.194;11.546;2024-02-26T13:50:40;1.45;;;0.60;;
29238;SDS011;16267;48.194;11.546;2024-02-26T13:53:10;1.67;;;0.73;;
29238;SDS011;16267;48.194;11.546;2024-02-26T13:55:37;0.98;;;0.57;;
29238;SDS011;16267;48.194;11.546;2024-02-26T13:58:05;2.42;;;0.70;;
29238;SDS011;16267;48.194;11.546;2024-02-26T14:00:32;1.00;;;0.60;;
29238;SDS011;16267;48.194;11.546;2024-02-26T14:02:59;0.80;;;0.50;;
29238;SDS011;16267;48.194;11.546;2024-02-26T14:05:25;0.68;;;0.50;;
29238;SDS011;16267;48.194;11.546;2024-02-26T14:07:52;0.50;;;0.50;;
29238;SDS011;16267;48.194;11.546;2024-02-26T14:10:18;0.90;;;0.57;;
29238;SDS011;16267;48.194;11.546;2024-02-26T14:12:44;0.73;;;0.50;;
29238;SDS011;16267;48.194;11.546;2024-02-26T14:15:10;1.27;;;0.68;;
29238;SDS011;16267;48.194;11.546;2024-02-26T14:17:36;0.75;;;0.55;;
29238;SDS011;16267;48.194;11.546;2024-02-26T14:20:02;2.08;;;0.80;;
29238;SDS011;16267;48.194;11.546;2024-02-26T14:22:29;1.63;;;0.80;;
29238;SDS011;16267;48.194;11.546;2024-02-26T14:24:58;2.35;;;0.60;;
29238;SDS011;16267;48.194;11.546;2024-02-26T14:27:24;1.48;;;0.80;;
29238;SDS011;16267;48.194;11.546;2024-02-26T14:29:50;1.10;;;0.65;;
29238;SDS011;16267;48.194;11.546;2024-02-26T14:32:16;0.80;;;0.68;;
29238;SDS011;16267;48.194;11.546;2024-02-26T14:34:42;1.13;;;0.80;;
29238;SDS011;16267;48.194;11.546;2024-02-26T14:37:08;14.98;;;4.68;;
29238;SDS011;16267;48.194;11.546;2024-02-26T14:39:34;5.15;;;2.70;;